Terminal Aerodrome Forecast
Issued by NWS

Home | Current Version | Previous Version | Text Only | Print | Product List | Glossary On
Versions: 1 2 3 4 5 6 7 8 9 10 11 12 13 14 15 16 17 18 19 20 21 22 23 24 25 26 27 28 29 30 31 32 33 34 35 36 37 38 39 40 41 42 43 44 45 46
000
FTUS45 KBOU 112105 AAB
TAFAPA
TAF AMD
KAPA 112105Z 1121/1218 32013KT P6SM FEW090 SCT140 BKN220
      TEMPO 1121/1123 32013G22KT
     FM112300 30008KT P6SM FEW140 SCT200
     FM120400 18008KT P6SM FEW140 SCT220
     FM121600 12008KT P6SM SCT220=

USA.gov is the U.S. government's official web portal to all federal, state and local government web resources and services.